Time;durP1;ratioP1;P1;durP2;ratioP2;P2;SDS_P1;SDS_P2;PMS_P1;PMS_P2;Temp;Humidity;BMP_temperature;BMP_pressure;BME280_temperature;BME280_humidity;BME280_pressure;Samples;Min_cycle;Max_cycle;Signal;HPM_P1;HPM_P2
2021/12/29 00:01:20;;;;;;;15.88;10.60;;;;;;;0.00;67.31;99418.78;5073218;28;20039;-55
2021/12/29 00:03:46;;;;;;;18.40;10.82;;;;;;;0.03;67.28;99420.50;5080622;28;20037;-53
2021/12/29 00:06:11;;;;;;;19.85;10.75;;;;;;;0.09;67.00;99407.63;5093267;28;20043;-54
2021/12/29 00:08:37;;;;;;;17.05;10.85;;;;;;;0.08;66.78;99408.44;5093267;28;20036;-54
2021/12/29 00:11:03;;;;;;;16.00;10.80;;;;;;;0.02;67.03;99411.88;5092672;28;20498;-54
2021/12/29 00:13:29;;;;;;;15.70;10.40;;;;;;;0.05;67.05;99411.03;5079528;28;20036;-56
2021/12/29 00:16:00;;;;;;;16.25;11.00;;;;;;;0.02;67.17;99417.03;5072975;28;20029;-54
2021/12/29 00:18:28;;;;;;;16.13;10.75;;;;;;;0.02;67.12;99409.31;5091665;28;20035;-53
2021/12/29 00:20:55;;;;;;;17.10;11.30;;;;;;;0.01;67.14;99409.31;5076619;28;20035;-52
2021/12/29 00:23:20;;;;;;;15.32;10.23;;;;;;;-0.03;67.16;99414.44;5072979;28;20066;-53
2021/12/29 00:25:46;;;;;;;18.75;11.60;;;;;;;-0.11;67.28;99416.13;5072909;28;20044;-54
2021/12/29 00:28:12;;;;;;;16.70;11.43;;;;;;;-0.13;67.38;99416.94;5072774;28;20368;-53
2021/12/29 00:30:38;;;;;;;18.60;11.52;;;;;;;-0.12;67.31;99418.66;5087097;28;20036;-54
2021/12/29 00:33:03;;;;;;;17.83;11.60;;;;;;;-0.13;67.40;99415.22;5092842;28;20052;-52
2021/12/29 00:35:29;;;;;;;16.10;10.07;;;;;;;-0.10;67.48;99435.06;5092877;28;20426;-52
2021/12/29 00:37:59;;;;;;;16.17;11.20;;;;;;;-0.12;67.17;99429.91;5093243;28;20524;-54
2021/12/29 00:40:24;;;;;;;16.92;10.35;;;;;;;-0.10;67.34;99428.16;5091561;28;20035;-53
2021/12/29 00:42:50;;;;;;;18.30;11.73;;;;;;;-0.09;67.34;99435.06;5084817;28;20081;-52
2021/12/29 00:45:15;;;;;;;17.13;10.35;;;;;;;-0.02;67.16;99442.00;5072930;28;20075;-54
2021/12/29 00:47:42;;;;;;;16.00;10.02;;;;;;;0.03;67.22;99434.25;5083117;28;20040;-53
2021/12/29 00:50:12;;;;;;;18.40;11.70;;;;;;;0.04;67.10;99428.25;5092993;28;20036;-55
2021/12/29 00:52:38;;;;;;;20.65;11.43;;;;;;;0.06;67.06;99434.28;5090403;28;20032;-55
2021/12/29 00:55:04;;;;;;;16.08;10.98;;;;;;;0.04;66.82;99428.25;5072561;28;20032;-51
2021/12/29 00:57:30;;;;;;;16.88;11.43;;;;;;;0.04;66.93;99424.78;5076364;28;20020;-54
2021/12/29 00:59:56;;;;;;;17.65;11.75;;;;;;;-0.03;67.29;99421.34;5076328;28;20029;-52
2021/12/29 01:02:22;;;;;;;18.02;12.40;;;;;;;-0.05;66.94;99423.03;5076146;28;20048;-56
2021/12/29 01:04:47;;;;;;;19.92;12.23;;;;;;;0.00;67.11;99429.09;5092083;28;20040;-52
2021/12/29 01:07:13;;;;;;;19.02;11.80;;;;;;;-0.02;67.19;99423.91;5092021;28;20083;-53
2021/12/29 01:09:41;;;;;;;19.80;12.23;;;;;;;-0.01;66.99;99432.53;5076037;28;20036;-55
2021/12/29 01:12:08;;;;;;;18.48;12.95;;;;;;;-0.05;67.12;99428.19;5077380;28;20036;-53
2021/12/29 01:14:34;;;;;;;18.95;12.57;;;;;;;-0.05;67.29;99423.03;5094149;28;20037;-53
2021/12/29 01:16:59;;;;;;;19.08;12.02;;;;;;;-0.03;67.28;99408.41;5096075;28;20047;-55
2021/12/29 01:19:29;;;;;;;19.20;11.90;;;;;;;0.00;67.17;99421.34;5094003;28;20509;-53
2021/12/29 01:21:57;;;;;;;22.27;13.43;;;;;;;0.02;66.96;99419.63;5096047;28;20028;-52
2021/12/29 01:24:26;;;;;;;20.15;13.48;;;;;;;-0.05;67.20;99415.28;5095945;28;20406;-52
2021/12/29 01:26:52;;;;;;;21.38;14.05;;;;;;;0.01;67.13;99419.63;5089146;28;20054;-54
2021/12/29 01:29:18;;;;;;;20.17;13.55;;;;;;;0.04;67.05;99415.34;5096017;28;20064;-51
2021/12/29 01:31:44;;;;;;;24.65;16.77;;;;;;;-0.05;67.13;99417.88;5094620;28;20139;-51
2021/12/29 01:34:10;;;;;;;22.35;14.85;;;;;;;-0.04;67.11;99410.13;5094374;28;20141;-52
2021/12/29 01:36:37;;;;;;;24.00;15.95;;;;;;;-0.05;67.10;99413.56;5079025;28;20047;-52
2021/12/29 01:39:08;;;;;;;28.75;16.23;;;;;;;-0.06;67.18;99406.66;5089890;28;20094;-54
2021/12/29 01:41:34;;;;;;;26.98;16.98;;;;;;;-0.09;67.22;99414.41;5094422;28;20402;-52
2021/12/29 01:43:59;;;;;;;24.05;14.88;;;;;;;-0.05;67.50;99415.28;5088081;28;20040;-54
2021/12/29 01:46:25;;;;;;;24.63;15.75;;;;;;;-0.03;67.19;99411.00;5087844;28;20423;-52
2021/12/29 01:48:51;;;;;;;21.10;13.20;;;;;;;-0.01;67.32;99412.72;5075278;28;20464;-54
2021/12/29 01:51:18;;;;;;;23.02;15.02;;;;;;;0.02;67.31;99416.19;5075262;28;20039;-55
2021/12/29 01:54:23;;;;;;;23.30;15.70;;;;;;;0.06;67.12;99423.97;5094637;28;20068;-54
2021/12/29 01:56:35;;;;;;;26.48;15.75;;;;;;;0.08;67.06;99419.69;5093444;28;20040;-54
2021/12/29 01:59:01;;;;;;;23.20;14.93;;;;;;;0.09;67.06;99418.81;5095242;28;20089;-52
2021/12/29 02:01:26;;;;;;;22.40;13.93;;;;;;;0.09;66.96;99426.56;5095253;28;20032;-52
2021/12/29 02:03:52;;;;;;;22.55;13.98;;;;;;;0.06;67.27;99421.38;5080523;28;20167;-51
2021/12/29 02:06:18;;;;;;;21.23;13.13;;;;;;;0.05;67.37;99426.53;5086700;28;20115;-51
2021/12/29 02:08:44;;;;;;;23.13;13.45;;;;;;;0.02;67.51;99427.38;5095091;28;20535;-52
2021/12/29 02:11:10;;;;;;;24.13;14.88;;;;;;;-0.03;67.73;99416.16;5088060;28;20444;-51
2021/12/29 02:13:36;;;;;;;22.50;13.93;;;;;;;-0.03;67.59;99414.44;5085858;28;20046;-50
2021/12/29 02:16:01;;;;;;;21.30;12.93;;;;;;;0.00;67.59;99421.34;5095043;28;20122;-52
2021/12/29 02:18:27;;;;;;;24.13;14.88;;;;;;;0.03;67.50;99418.75;5093007;28;20036;-52
2021/12/29 02:20:54;;;;;;;23.65;14.88;;;;;;;0.02;67.93;99422.22;5094983;28;20166;-52
2021/12/29 02:23:30;;;;;;;24.67;14.85;;;;;;;0.02;67.83;99416.19;5081659;28;20487;-52
2021/12/29 02:25:57;;;;;;;23.73;14.82;;;;;;;-0.03;68.05;99411.88;5074798;28;20037;-51
2021/12/29 02:28:32;;;;;;;23.23;14.68;;;;;;;0.04;67.63;99412.78;5074432;28;20041;-52
2021/12/29 02:30:59;;;;;;;22.02;13.35;;;;;;;0.06;67.77;99408.47;5083147;28;20039;-54
2021/12/29 02:33:26;;;;;;;24.25;14.45;;;;;;;0.09;67.99;99416.22;5074367;28;20036;-51
2021/12/29 02:35:52;;;;;;;22.92;15.50;;;;;;;0.09;67.66;99408.47;5074459;28;20029;-52
2021/12/29 02:38:19;;;;;;;22.13;14.23;;;;;;;0.11;67.78;99391.25;5074406;28;20035;-54
2021/12/29 02:40:49;;;;;;;23.38;15.43;;;;;;;0.13;67.97;99394.72;5084674;28;20028;-55
2021/12/29 02:43:19;;;;;;;21.73;13.38;;;;;;;0.11;67.88;99390.41;5083066;28;20035;-52
2021/12/29 02:45:49;;;;;;;26.20;16.25;;;;;;;0.04;68.13;99394.69;5074120;28;20463;-54
2021/12/29 02:48:14;;;;;;;27.08;15.75;;;;;;;0.08;68.11;99391.25;5074280;28;20075;-53
2021/12/29 02:50:41;;;;;;;23.48;15.55;;;;;;;0.09;68.06;99399.88;5073977;28;20060;-54
2021/12/29 02:53:09;;;;;;;22.02;14.15;;;;;;;0.13;68.21;99394.72;5075078;28;20048;-55
2021/12/29 02:55:35;;;;;;;23.65;15.65;;;;;;;0.17;68.43;99393.03;5073844;28;20056;-52
2021/12/29 02:58:00;;;;;;;20.70;14.05;;;;;;;0.19;68.31;99388.72;5073799;28;20091;-52
2021/12/29 03:00:25;;;;;;;23.92;15.70;;;;;;;0.19;68.61;99392.16;5074002;28;20510;-55
2021/12/29 03:02:51;;;;;;;20.98;13.73;;;;;;;0.17;68.39;99386.13;5074965;28;20436;-53
2021/12/29 03:05:18;;;;;;;19.65;13.65;;;;;;;0.16;68.69;99389.59;5092752;28;20535;-53
2021/12/29 03:07:43;;;;;;;21.63;13.45;;;;;;;0.20;68.73;99390.44;5092747;28;20028;-52
2021/12/29 03:10:09;;;;;;;22.55;14.50;;;;;;;0.21;68.51;99394.75;5075920;28;20395;-53
2021/12/29 03:12:34;;;;;;;23.15;14.75;;;;;;;0.23;68.59;99396.47;5090345;28;20036;-52
2021/12/29 03:15:00;;;;;;;23.70;14.32;;;;;;;0.28;68.55;99387.88;5073917;28;20486;-53
2021/12/29 03:17:27;;;;;;;26.83;15.55;;;;;;;0.22;68.83;99389.59;5073862;28;20070;-52
2021/12/29 03:19:52;;;;;;;24.20;14.88;;;;;;;0.26;68.60;99393.06;5089333;28;20089;-52
2021/12/29 03:22:18;;;;;;;23.55;13.90;;;;;;;0.29;68.61;99390.50;5093873;28;20332;-52
2021/12/29 03:24:43;;;;;;;22.33;13.52;;;;;;;0.34;68.59;99398.25;5088594;28;20033;-51
2021/12/29 03:27:09;;;;;;;22.58;13.80;;;;;;;0.27;68.66;99391.31;5076390;28;20024;-52
2021/12/29 03:29:34;;;;;;;22.23;13.98;;;;;;;0.31;68.82;99408.56;5093678;28;20063;-52
2021/12/29 03:32:06;;;;;;;22.35;14.00;;;;;;;0.33;68.86;99406.88;5091898;28;20075;-55
2021/12/29 03:34:31;;;;;;;22.10;13.48;;;;;;;0.33;68.70;99417.22;5093878;28;20042;-54
2021/12/29 03:36:57;;;;;;;18.38;12.20;;;;;;;0.32;69.05;99408.59;5093762;28;20028;-54
2021/12/29 03:39:23;;;;;;;19.80;12.80;;;;;;;0.33;68.78;99409.47;5093653;28;20437;-52
2021/12/29 03:41:49;;;;;;;19.40;13.23;;;;;;;0.33;68.80;99412.03;5089605;28;20429;-52
2021/12/29 03:44:14;;;;;;;19.13;11.80;;;;;;;0.35;68.85;99420.66;5073321;28;20024;-55
2021/12/29 03:46:40;;;;;;;17.75;12.10;;;;;;;0.40;68.79;99422.41;5073572;28;20033;-52
2021/12/29 03:49:06;;;;;;;18.23;12.13;;;;;;;0.43;68.84;99424.13;5088947;28;20043;-54
2021/12/29 03:51:31;;;;;;;16.55;11.52;;;;;;;0.44;68.97;99418.97;5092511;28;20040;-54
2021/12/29 03:53:58;;;;;;;18.90;11.80;;;;;;;0.47;68.64;99416.38;5093288;28;20036;-54
2021/12/29 03:56:24;;;;;;;18.58;12.35;;;;;;;0.49;68.83;99413.81;5093391;28;20037;-52
2021/12/29 03:58:49;;;;;;;19.52;13.23;;;;;;;0.48;68.96;99415.53;5093641;28;20032;-52
2021/12/29 04:01:16;;;;;;;19.35;13.38;;;;;;;0.48;68.84;99412.97;5065996;28;20040;-54
2021/12/29 04:03:45;;;;;;;19.08;11.90;;;;;;;0.45;69.26;99422.41;5073242;28;20033;-54
2021/12/29 04:06:15;;;;;;;20.25;12.57;;;;;;;0.49;69.02;99421.56;5073106;28;20510;-52
2021/12/29 04:08:40;;;;;;;20.52;13.23;;;;;;;0.51;69.08;99412.09;5073239;28;20098;-52
2021/12/29 04:11:05;;;;;;;17.98;11.73;;;;;;;0.56;68.83;99409.50;5073361;28;20033;-51
2021/12/29 04:13:31;;;;;;;17.98;11.68;;;;;;;0.56;69.12;99410.41;5083402;28;20036;-52
2021/12/29 04:15:57;;;;;;;20.83;12.88;;;;;;;0.60;68.69;99409.56;5092003;28;20036;-55
2021/12/29 04:18:26;;;;;;;19.27;12.23;;;;;;;0.63;68.64;99404.38;5093295;28;20036;-53
2021/12/29 04:20:55;;;;;;;20.60;12.13;;;;;;;0.62;68.75;99402.66;5093422;28;20036;-54
2021/12/29 04:23:22;;;;;;;16.23;10.23;;;;;;;0.67;68.72;99411.28;5093224;28;20054;-53
2021/12/29 04:25:51;;;;;;;16.65;10.75;;;;;;;0.64;68.58;99407.81;5075547;28;20033;-52
2021/12/29 04:28:20;;;;;;;20.73;12.63;;;;;;;0.58;68.97;99407.81;5071940;28;20028;-54
2021/12/29 04:31:05;;;;;;;16.50;11.00;;;;;;;0.54;68.99;99401.78;5074171;28;20120;-53
2021/12/29 04:33:31;;;;;;;17.13;10.63;;;;;;;0.59;68.96;99409.53;5076661;28;20511;-51
2021/12/29 04:35:57;;;;;;;34.22;19.95;;;;;;;0.61;68.88;99408.69;5088613;28;20028;-51
2021/12/29 04:38:24;;;;;;;34.80;22.38;;;;;;;0.60;69.03;99401.81;5093037;28;20051;-54
2021/12/29 04:40:51;;;;;;;25.75;18.13;;;;;;;0.61;68.88;99416.44;5076535;28;20045;-50
2021/12/29 04:43:18;;;;;;;18.55;12.18;;;;;;;0.60;68.87;99412.13;5076738;28;20075;-53
2021/12/29 04:45:44;;;;;;;17.85;11.18;;;;;;;0.60;68.95;99409.56;5076444;28;20040;-51
2021/12/29 04:48:13;;;;;;;16.55;11.30;;;;;;;0.66;69.05;99413.88;5076455;28;20032;-52
2021/12/29 04:50:49;;;;;;;16.98;10.68;;;;;;;0.65;69.08;99406.97;5076274;28;20040;-51
2021/12/29 04:53:15;;;;;;;19.80;12.20;;;;;;;0.65;69.01;99409.56;5076507;28;20034;-52
2021/12/29 04:55:45;;;;;;;18.42;11.63;;;;;;;0.68;68.87;99414.75;5085736;28;20046;-54
2021/12/29 04:58:12;;;;;;;19.88;12.10;;;;;;;0.62;69.01;99410.41;5078389;28;20041;-52
2021/12/29 05:00:38;;;;;;;16.25;10.70;;;;;;;0.62;69.19;99405.25;5079513;28;20085;-51
2021/12/29 05:03:04;;;;;;;16.50;9.80;;;;;;;0.64;69.09;99403.53;5096269;28;20519;-51
2021/12/29 05:10:40;;;;;;;19.77;11.88;;;;;;;0.65;68.94;99407.84;5096647;28;20030;-52
2021/12/29 05:13:05;;;;;;;39.08;20.70;;;;;;;0.61;69.08;99406.09;5088434;28;20024;-53
2021/12/29 05:15:30;;;;;;;36.50;17.70;;;;;;;0.63;69.24;99406.97;5076201;28;20044;-52
2021/12/29 05:17:58;;;;;;;23.55;14.48;;;;;;;0.60;69.15;99409.56;5076818;28;20033;-52
2021/12/29 05:20:25;;;;;;;21.90;13.88;;;;;;;0.61;69.00;99400.06;5087030;28;20035;-53
2021/12/29 05:22:50;;;;;;;19.00;11.98;;;;;;;0.69;68.69;99404.41;5076263;28;20048;-52
2021/12/29 05:25:16;;;;;;;20.02;13.30;;;;;;;0.69;68.95;99407.00;5075682;28;20025;-51
2021/12/29 05:27:41;;;;;;;20.45;13.25;;;;;;;0.70;68.88;99408.72;5085803;28;20032;-53
2021/12/29 05:30:07;;;;;;;17.27;11.48;;;;;;;0.76;68.85;99414.75;5095757;28;20036;-54
2021/12/29 05:32:33;;;;;;;21.92;13.80;;;;;;;0.73;68.63;99405.28;5095307;28;20079;-51
2021/12/29 05:34:59;;;;;;;19.25;12.68;;;;;;;0.72;68.82;99414.75;5075702;28;20043;-51
2021/12/29 05:37:24;;;;;;;25.35;14.30;;;;;;;0.76;68.81;99422.50;5075744;28;20028;-51
2021/12/29 05:39:50;;;;;;;32.88;14.95;;;;;;;0.71;68.71;99418.19;5080850;28;20391;-50
2021/12/29 05:42:15;;;;;;;22.70;12.68;;;;;;;0.72;68.97;99412.16;5095194;28;20542;-50
2021/12/29 05:44:41;;;;;;;34.08;16.83;;;;;;;0.73;68.92;99420.78;5093869;28;20044;-52
2021/12/29 05:47:06;;;;;;;40.85;19.00;;;;;;;0.73;68.76;99418.19;5077936;28;20043;-56
2021/12/29 05:49:32;;;;;;;29.65;14.60;;;;;;;0.76;68.70;99417.31;5075391;28;20081;-53
2021/12/29 05:51:57;;;;;;;32.45;15.27;;;;;;;0.72;68.75;99425.09;5075289;28;20024;-50
2021/12/29 05:54:23;;;;;;;21.58;12.80;;;;;;;0.74;68.77;99431.13;5075084;28;20476;-51
2021/12/29 05:56:48;;;;;;;20.20;12.25;;;;;;;0.71;68.97;99425.94;5075178;28;20373;-51
2021/12/29 05:59:14;;;;;;;29.65;15.38;;;;;;;0.67;69.22;99431.97;5089311;28;20023;-53
2021/12/29 06:01:42;;;;;;;21.55;12.68;;;;;;;0.73;68.87;99444.06;5095314;28;20055;-53
2021/12/29 06:04:08;;;;;;;27.00;15.70;;;;;;;0.75;68.83;99442.31;5084175;28;20035;-54
2021/12/29 06:06:33;;;;;;;23.58;13.90;;;;;;;0.73;68.99;99438.88;5075163;28;20033;-51
2021/12/29 06:08:59;;;;;;;21.02;11.93;;;;;;;0.74;68.88;99436.28;5074850;28;20039;-51
2021/12/29 06:11:24;;;;;;;19.65;12.75;;;;;;;0.73;68.88;99447.50;5074820;28;20029;-54
2021/12/29 06:13:50;;;;;;;19.55;12.05;;;;;;;0.78;68.67;99451.81;5089613;28;20087;-51
2021/12/29 06:16:15;;;;;;;21.23;13.35;;;;;;;0.79;69.00;99441.47;5094882;28;20161;-52
2021/12/29 06:18:40;;;;;;;21.33;13.10;;;;;;;0.79;68.98;99446.66;5093624;28;20118;-54
2021/12/29 06:21:06;;;;;;;24.15;13.75;;;;;;;0.76;69.01;99445.78;5082281;28;20035;-51
2021/12/29 06:23:31;;;;;;;24.08;14.10;;;;;;;0.78;68.92;99447.53;5074488;28;20046;-53
2021/12/29 06:25:56;;;;;;;19.10;11.90;;;;;;;0.80;68.62;99448.41;5079152;28;20050;-54
2021/12/29 06:28:23;;;;;;;23.90;13.20;;;;;;;0.83;68.88;99457.88;5074459;28;20064;-54
2021/12/29 06:30:48;;;;;;;21.83;13.15;;;;;;;0.83;68.80;99463.91;5074576;28;20039;-54
2021/12/29 06:33:13;;;;;;;20.20;12.13;;;;;;;0.80;69.12;99465.63;5074195;28;20080;-51
2021/12/29 06:35:39;;;;;;;21.52;12.82;;;;;;;0.84;68.86;99465.66;5075517;28;20086;-52
2021/12/29 06:38:04;;;;;;;21.92;13.45;;;;;;;0.86;68.89;99469.09;5094266;28;20506;-51
2021/12/29 06:40:30;;;;;;;22.05;13.73;;;;;;;0.82;69.02;99458.75;5081668;28;20480;-54
2021/12/29 06:42:55;;;;;;;23.38;13.82;;;;;;;0.85;69.06;99476.84;5090004;28;20395;-53
2021/12/29 06:45:21;;;;;;;21.05;12.98;;;;;;;0.84;68.94;99478.59;5094287;28;20048;-54
2021/12/29 06:47:46;;;;;;;23.08;14.23;;;;;;;0.82;69.27;99475.13;5094511;28;20032;-51
2021/12/29 06:50:12;;;;;;;23.35;13.60;;;;;;;0.84;69.04;99478.59;5088378;28;20037;-54
2021/12/29 06:52:37;;;;;;;25.67;15.30;;;;;;;0.86;69.09;99482.03;5073824;28;20028;-52
2021/12/29 06:55:04;;;;;;;21.42;13.25;;;;;;;0.85;69.00;99489.78;5073583;28;20025;-51
2021/12/29 06:57:29;;;;;;;22.27;12.63;;;;;;;0.86;68.98;99491.50;5074170;28;20341;-54
2021/12/29 06:59:55;;;;;;;22.33;13.93;;;;;;;0.89;69.03;99496.69;5073882;28;20035;-54
2021/12/29 07:02:21;;;;;;;21.48;13.95;;;;;;;0.89;69.32;99488.94;5073931;28;20044;-55
2021/12/29 07:04:46;;;;;;;23.13;14.77;;;;;;;0.93;69.08;99494.13;5089863;28;20359;-50
2021/12/29 07:07:12;;;;;;;25.25;15.20;;;;;;;0.93;69.26;99488.09;5075924;28;20448;-54
2021/12/29 07:09:37;;;;;;;21.60;13.30;;;;;;;0.89;69.20;99482.03;5093732;28;20044;-52
2021/12/29 07:12:03;;;;;;;25.52;14.90;;;;;;;0.87;69.41;99493.22;5093504;28;20036;-54
2021/12/29 07:14:29;;;;;;;24.38;14.85;;;;;;;0.84;69.71;99493.22;5084996;28;20037;-52
2021/12/29 07:16:55;;;;;;;22.15;13.93;;;;;;;0.85;69.62;99497.53;5073732;28;20044;-51
2021/12/29 07:19:20;;;;;;;25.80;14.35;;;;;;;0.85;69.59;99500.13;5073607;28;20460;-54
2021/12/29 07:21:46;;;;;;;22.67;13.98;;;;;;;0.91;69.46;99507.91;5090150;28;20419;-53
2021/12/29 07:24:12;;;;;;;26.08;14.82;;;;;;;0.90;69.63;99501.88;5093526;28;20102;-52
2021/12/29 07:26:38;;;;;;;25.88;15.40;;;;;;;0.93;69.74;99501.88;5073816;28;20042;-54
2021/12/29 07:29:05;;;;;;;26.38;15.35;;;;;;;0.96;69.63;99509.66;5086434;28;20036;-55
2021/12/29 07:31:31;;;;;;;30.65;16.92;;;;;;;1.04;69.39;99509.69;5093574;28;20131;-54
2021/12/29 07:33:57;;;;;;;30.65;17.73;;;;;;;1.03;69.48;99512.25;5093557;28;20103;-54
2021/12/29 07:36:22;;;;;;;24.70;14.88;;;;;;;1.05;69.48;99513.13;5093618;28;20040;-53
2021/12/29 07:38:47;;;;;;;30.15;16.30;;;;;;;1.04;69.60;99514.88;5093655;28;20035;-53
2021/12/29 07:41:14;;;;;;;26.33;14.88;;;;;;;1.06;69.84;99514.84;5093620;28;20024;-52
2021/12/29 07:43:41;;;;;;;26.10;15.63;;;;;;;1.06;69.74;99526.06;5093608;28;20044;-53
2021/12/29 07:46:07;;;;;;;25.60;16.13;;;;;;;0.98;70.24;99525.19;5086608;28;20525;-55
2021/12/29 07:48:34;;;;;;;29.45;16.75;;;;;;;0.99;70.22;99516.53;5073661;28;20029;-50
2021/12/29 07:51:02;;;;;;;25.83;15.68;;;;;;;0.96;70.37;99521.72;5073213;28;20039;-55
2021/12/29 07:53:28;;;;;;;29.02;16.10;;;;;;;0.99;70.33;99520.00;5073077;28;20064;-53
2021/12/29 07:55:54;;;;;;;26.30;15.55;;;;;;;1.02;70.35;99526.91;5073548;28;20071;-53
2021/12/29 07:58:20;;;;;;;30.10;16.02;;;;;;;1.06;70.20;99528.66;5090823;28;20032;-54
2021/12/29 08:00:46;;;;;;;23.70;14.82;;;;;;;1.09;70.10;99522.63;5088293;28;20036;-52
2021/12/29 08:03:12;;;;;;;24.13;14.45;;;;;;;1.16;70.06;99520.06;5088378;28;20058;-54
2021/12/29 08:05:39;;;;;;;28.38;15.35;;;;;;;1.17;70.04;99516.59;5087561;28;20044;-51
2021/12/29 08:08:06;;;;;;;24.65;13.98;;;;;;;1.19;69.95;99524.38;5093800;28;20104;-55
2021/12/29 08:10:36;;;;;;;32.40;17.17;;;;;;;1.23;69.84;99523.50;5089770;28;20422;-53
2021/12/29 08:13:04;;;;;;;28.40;15.50;;;;;;;1.31;69.52;99520.94;5077174;28;20169;-53
2021/12/29 08:15:29;;;;;;;27.83;15.93;;;;;;;1.35;69.76;99520.94;5081970;28;20190;-50
2021/12/29 08:17:56;;;;;;;29.75;16.65;;;;;;;1.34;69.89;99523.53;5082983;28;20542;-56
2021/12/29 08:20:21;;;;;;;27.33;15.65;;;;;;;1.38;69.74;99528.72;5081119;28;20044;-54
2021/12/29 08:22:47;;;;;;;30.45;17.40;;;;;;;1.46;69.52;99523.56;5094885;28;20081;-53
2021/12/29 08:25:12;;;;;;;32.20;17.90;;;;;;;1.48;69.51;99529.63;5088889;28;20044;-54
2021/12/29 08:27:38;;;;;;;30.27;15.98;;;;;;;1.47;69.80;99538.22;5086018;28;20403;-51
2021/12/29 08:30:05;;;;;;;32.05;16.45;;;;;;;1.48;69.54;99527.03;5096233;28;20036;-52
2021/12/29 08:32:31;;;;;;;27.02;16.30;;;;;;;1.48;69.71;99516.69;5096775;28;20505;-52
2021/12/29 08:34:56;;;;;;;29.25;17.05;;;;;;;1.54;69.34;99519.25;5086131;28;20060;-52
2021/12/29 08:37:21;;;;;;;33.42;19.02;;;;;;;1.45;69.78;99533.06;5064070;28;20038;-54
2021/12/29 08:39:47;;;;;;;30.73;18.23;;;;;;;1.44;69.82;99535.66;5090629;28;20032;-53
2021/12/29 08:42:12;;;;;;;28.02;16.73;;;;;;;1.46;69.84;99528.75;5079578;28;20478;-54
2021/12/29 08:44:38;;;;;;;30.55;17.33;;;;;;;1.48;69.92;99530.47;5082400;28;20521;-54
2021/12/29 08:47:04;;;;;;;34.70;18.38;;;;;;;1.53;69.85;99527.91;5093367;28;20028;-54
2021/12/29 08:49:30;;;;;;;30.05;16.50;;;;;;;1.61;69.45;99533.09;5093716;28;20039;-56
2021/12/29 08:51:56;;;;;;;40.50;21.73;;;;;;;1.64;69.31;99528.78;5087348;28;20037;-52
2021/12/29 08:54:22;;;;;;;33.13;18.73;;;;;;;1.71;69.23;99522.72;5087314;28;20028;-53
2021/12/29 08:56:47;;;;;;;31.27;18.67;;;;;;;1.76;69.17;99534.84;5095770;28;20035;-55
2021/12/29 08:59:13;;;;;;;30.23;18.15;;;;;;;1.73;69.37;99540.88;5078651;28;20075;-53
2021/12/29 09:01:40;;;;;;;35.40;18.50;;;;;;;1.75;69.03;99544.31;5096641;28;20455;-55
2021/12/29 09:04:06;;;;;;;34.72;19.67;;;;;;;1.79;69.06;99540.00;5076647;28;20052;-53
2021/12/29 09:06:33;;;;;;;31.88;18.35;;;;;;;1.83;69.12;99546.91;5077470;28;20028;-55
2021/12/29 09:08:59;;;;;;;38.78;20.02;;;;;;;1.84;69.06;99546.06;5096198;28;20047;-54
2021/12/29 09:11:24;;;;;;;37.30;19.50;;;;;;;1.84;69.09;99548.66;5095622;28;20044;-53
2021/12/29 09:13:50;;;;;;;37.22;20.27;;;;;;;1.81;69.11;99546.06;5095190;28;20039;-55
2021/12/29 09:16:15;;;;;;;32.50;19.10;;;;;;;1.81;69.37;99552.09;5093719;28;20043;-53
2021/12/29 09:18:41;;;;;;;30.52;18.38;;;;;;;1.72;69.46;99546.91;5090328;28;20059;-54
2021/12/29 09:21:14;;;;;;;32.70;18.27;;;;;;;1.67;69.79;99549.47;5084181;28;20054;-54
2021/12/29 09:23:42;;;;;;;31.48;18.35;;;;;;;1.65;69.99;99543.44;5078763;28;20127;-51
2021/12/29 09:26:10;;;;;;;35.45;20.10;;;;;;;1.72;69.87;99544.31;5096006;28;20065;-55
2021/12/29 09:28:36;;;;;;;36.72;20.50;;;;;;;1.72;70.07;99547.78;5086855;28;20040;-55
2021/12/29 09:31:01;;;;;;;35.78;19.85;;;;;;;1.73;70.00;99540.88;5079763;28;20119;-55
2021/12/29 09:33:27;;;;;;;31.50;18.55;;;;;;;1.80;70.36;99544.34;5079030;28;20119;-54
2021/12/29 09:35:57;;;;;;;36.20;21.00;;;;;;;1.80;70.22;99542.59;5086052;28;20036;-54
2021/12/29 09:38:23;;;;;;;36.30;21.30;;;;;;;1.83;70.09;99541.72;5083948;28;20114;-52
2021/12/29 09:40:49;;;;;;;34.45;19.80;;;;;;;1.75;70.55;99548.63;5095431;28;20078;-55
2021/12/29 09:43:17;;;;;;;28.80;17.85;;;;;;;1.78;70.40;99546.03;5094809;28;20408;-53
2021/12/29 09:45:43;;;;;;;35.33;19.15;;;;;;;1.85;70.24;99552.97;5093954;28;20047;-53
2021/12/29 09:48:09;;;;;;;32.53;18.30;;;;;;;1.90;70.19;99543.44;5093937;28;20125;-54
2021/12/29 09:50:35;;;;;;;34.95;19.52;;;;;;;1.96;69.93;99540.88;5084350;28;20464;-53
2021/12/29 09:53:01;;;;;;;35.03;20.38;;;;;;;2.00;69.81;99541.75;5075081;28;20038;-54
2021/12/29 09:55:27;;;;;;;33.67;19.25;;;;;;;2.01;69.83;99544.31;5075279;28;20051;-53
2021/12/29 09:57:56;;;;;;;31.75;18.00;;;;;;;2.06;69.40;99547.75;5088443;28;20062;-56
2021/12/29 10:00:32;;;;;;;31.38;19.02;;;;;;;2.06;69.68;99549.50;5091050;28;20067;-54
2021/12/29 10:03:01;;;;;;;40.70;24.27;;;;;;;2.04;69.79;99557.28;5092897;28;20103;-55
2021/12/29 10:05:27;;;;;;;35.03;20.42;;;;;;;1.96;69.95;99559.88;5095366;28;20027;-55
2021/12/29 10:08:05;;;;;;;39.08;21.92;;;;;;;1.97;70.02;99563.31;5095303;28;20116;-52
2021/12/29 10:10:33;;;;;;;37.47;21.20;;;;;;;1.98;69.81;99558.13;5095251;28;20034;-54
2021/12/29 10:12:59;;;;;;;36.92;21.83;;;;;;;2.01;69.73;99562.47;5090135;28;20032;-54
2021/12/29 10:15:34;;;;;;;36.83;19.35;;;;;;;2.03;69.86;99554.66;5085737;28;20027;-56
2021/12/29 10:18:10;;;;;;;40.15;21.92;;;;;;;1.98;70.06;99552.94;5094986;28;20056;-55
2021/12/29 10:20:54;;;;;;;35.33;20.35;;;;;;;2.02;70.05;99558.13;5094972;28;20032;-55
2021/12/29 10:23:32;;;;;;;36.08;19.88;;;;;;;2.04;69.97;99559.88;5074713;28;20044;-53
2021/12/29 10:26:06;;;;;;;40.33;23.50;;;;;;;2.00;70.19;99557.28;5089168;28;20602;-51
2021/12/29 10:28:32;;;;;;;36.55;21.17;;;;;;;2.01;70.10;99561.59;5095149;28;20051;-54
2021/12/29 10:31:27;;;;;;;35.38;20.80;;;;;;;2.08;70.20;99563.34;5095520;28;20047;-54
2021/12/29 10:33:58;;;;;;;40.30;22.27;;;;;;;2.12;70.10;99552.97;5042893;28;20585;-52
2021/12/29 10:36:32;;;;;;;37.78;20.08;;;;;;;2.20;69.90;99542.59;5046128;28;20144;-53
2021/12/29 10:39:21;;;;;;;39.28;22.95;;;;;;;2.26;69.67;99528.75;5049879;28;20115;-53
2021/12/29 10:41:50;;;;;;;37.28;22.25;;;;;;;2.35;69.71;99549.47;5051864;28;20092;-53
2021/12/29 10:44:23;;;;;;;54.90;31.92;;;;;;;2.45;69.46;99551.19;5039306;28;20029;-53
2021/12/29 10:46:49;;;;;;;54.88;33.35;;;;;;;2.54;69.35;99558.06;5054100;28;20043;-53
2021/12/29 10:49:14;;;;;;;40.97;23.33;;;;;;;2.58;69.11;99550.28;5054216;28;20025;-51
2021/12/29 10:51:45;;;;;;;35.13;21.23;;;;;;;2.60;69.15;99553.75;5051918;28;20092;-52
2021/12/29 10:54:16;;;;;;;42.28;23.50;;;;;;;2.63;69.10;99553.75;5053010;28;20476;-52
2021/12/29 10:56:45;;;;;;;35.85;21.48;;;;;;;2.62;69.06;99551.13;5044797;28;20421;-51
2021/12/29 10:59:23;;;;;;;32.10;18.88;;;;;;;2.66;69.17;99547.66;5038920;28;20029;-55
2021/12/29 11:01:51;;;;;;;31.60;18.48;;;;;;;2.62;69.22;99549.41;5051507;28;20052;-52
2021/12/29 11:04:19;;;;;;;35.42;21.30;;;;;;;2.59;69.32;99545.94;5054080;28;20033;-54
2021/12/29 11:06:47;;;;;;;35.05;21.17;;;;;;;2.57;69.35;99553.75;5052127;28;20029;-55
2021/12/29 11:09:15;;;;;;;35.90;22.80;;;;;;;2.56;69.56;99561.53;5043394;28;20052;-54
2021/12/29 11:11:45;;;;;;;35.63;20.60;;;;;;;2.50;69.70;99553.75;5053466;28;20396;-52
2021/12/29 11:14:31;;;;;;;33.85;20.73;;;;;;;2.51;69.63;99558.06;5052610;28;20102;-54
2021/12/29 11:17:03;;;;;;;34.78;20.95;;;;;;;2.45;69.68;99559.81;5053615;28;20495;-54
2021/12/29 11:19:29;;;;;;;30.60;19.08;;;;;;;2.51;69.69;99569.31;5033692;28;20029;-54
2021/12/29 11:22:06;;;;;;;38.28;22.08;;;;;;;2.52;69.70;99567.59;5033730;28;20036;-55
2021/12/29 11:24:31;;;;;;;37.42;20.42;;;;;;;2.51;69.70;99568.44;5031980;28;20026;-53
2021/12/29 11:26:59;;;;;;;36.72;20.70;;;;;;;2.46;69.92;99565.88;5033236;28;20051;-55
2021/12/29 11:29:24;;;;;;;32.28;19.38;;;;;;;2.45;70.12;99577.09;5032806;28;20037;-54